createdAt,value
2018-09-20T00:00:04.131Z,20.90
2018-09-20T00:02:32.344Z,20.90
2018-09-20T00:05:00.526Z,20.80
2018-09-20T00:07:28.758Z,20.80
2018-09-20T00:09:56.959Z,20.80
2018-09-20T00:12:25.148Z,20.80
2018-09-20T00:14:53.358Z,20.80
2018-09-20T00:17:21.544Z,20.80
2018-09-20T00:19:49.754Z,20.80
2018-09-20T00:22:17.939Z,20.70
2018-09-20T00:24:46.211Z,20.70
2018-09-20T00:27:14.405Z,20.70
2018-09-20T00:29:42.604Z,20.70
2018-09-20T00:32:10.815Z,20.60
2018-09-20T00:34:39.025Z,20.60
2018-09-20T00:37:07.203Z,20.60
2018-09-20T00:39:35.396Z,20.50
2018-09-20T00:42:03.590Z,20.50
2018-09-20T00:44:31.811Z,20.50
2018-09-20T00:47:00.032Z,20.50
2018-09-20T00:49:28.240Z,20.50
2018-09-20T00:51:56.463Z,20.40
2018-09-20T00:54:24.687Z,20.40
2018-09-20T00:56:52.892Z,20.40
2018-09-20T00:59:21.204Z,20.40
2018-09-20T01:01:49.411Z,20.40
2018-09-20T01:04:17.615Z,20.30
2018-09-20T01:06:45.820Z,20.30
2018-09-20T01:09:14.044Z,20.30
2018-09-20T01:11:42.248Z,20.30
2018-09-20T01:14:10.559Z,20.30
2018-09-20T01:16:38.756Z,20.30
2018-09-20T01:19:06.956Z,20.20
2018-09-20T01:21:35.119Z,20.20
2018-09-20T01:24:03.432Z,20.20
2018-09-20T01:26:31.633Z,20.20
2018-09-20T01:28:59.829Z,20.20
2018-09-20T01:31:28.051Z,20.20
2018-09-20T01:33:56.256Z,20.20
2018-09-20T01:36:24.464Z,20.20
2018-09-20T01:38:52.694Z,20.20
2018-09-20T01:41:20.916Z,20.20
2018-09-20T01:43:49.181Z,20.20
2018-09-20T01:46:17.417Z,20.10
2018-09-20T01:48:45.613Z,20.10
2018-09-20T01:51:13.802Z,20.10
2018-09-20T01:53:42.131Z,20.10
2018-09-20T01:56:14.491Z,20.10
2018-09-20T01:58:43.159Z,20.00
2018-09-20T02:01:11.371Z,20.00
2018-09-20T02:03:39.564Z,20.00
2018-09-20T02:06:07.771Z,20.00
2018-09-20T02:08:35.975Z,19.90
2018-09-20T02:11:04.179Z,19.90
2018-09-20T02:13:32.374Z,19.90
2018-09-20T02:16:00.564Z,19.80
2018-09-20T02:18:28.780Z,19.80
2018-09-20T02:20:56.986Z,19.80
2018-09-20T02:23:25.448Z,19.80
2018-09-20T02:25:54.550Z,19.80
2018-09-20T02:28:23.694Z,19.70
2018-09-20T02:30:53.234Z,19.70
2018-09-20T02:33:21.482Z,19.60
2018-09-20T02:35:49.711Z,19.60
2018-09-20T02:38:17.911Z,19.60
2018-09-20T02:40:46.070Z,19.50
2018-09-20T02:43:14.277Z,19.50
2018-09-20T02:45:42.460Z,19.50
2018-09-20T02:48:10.657Z,19.50
2018-09-20T02:50:38.872Z,19.50
2018-09-20T02:53:07.103Z,19.40
2018-09-20T02:55:35.323Z,19.40
2018-09-20T02:58:03.524Z,19.50
2018-09-20T03:00:31.691Z,19.50
2018-09-20T03:02:59.912Z,19.50
2018-09-20T03:05:28.121Z,19.60
2018-09-20T03:07:56.311Z,19.60
2018-09-20T03:10:24.512Z,19.60
2018-09-20T03:12:52.723Z,19.50
2018-09-20T03:15:21.016Z,19.50
2018-09-20T03:17:49.211Z,19.50
2018-09-20T03:20:17.426Z,19.50
2018-09-20T03:22:45.611Z,19.50
2018-09-20T03:25:13.832Z,19.50
2018-09-20T03:27:42.052Z,19.50
2018-09-20T03:30:10.328Z,19.50
2018-09-20T03:32:38.483Z,19.50
2018-09-20T03:35:06.727Z,19.50
2018-09-20T03:37:34.912Z,19.50
2018-09-20T03:40:03.136Z,19.60
2018-09-20T03:42:31.461Z,19.60
2018-09-20T03:44:59.757Z,19.60
2018-09-20T03:47:28.357Z,19.60
2018-09-20T03:49:56.598Z,19.60
2018-09-20T03:52:24.851Z,19.50
2018-09-20T03:54:53.103Z,19.50
2018-09-20T03:57:21.331Z,19.50
2018-09-20T03:59:49.598Z,19.50
2018-09-20T04:02:17.850Z,19.50
2018-09-20T04:04:46.115Z,19.40
2018-09-20T04:07:14.347Z,19.40
2018-09-20T04:09:42.670Z,19.40
2018-09-20T04:12:10.859Z,19.40
2018-09-20T04:14:39.127Z,19.40
2018-09-20T04:17:07.347Z,19.30
2018-09-20T04:19:35.599Z,19.30
2018-09-20T04:22:03.885Z,19.20
2018-09-20T04:24:32.170Z,19.20
2018-09-20T04:27:00.405Z,19.20
2018-09-20T04:29:28.672Z,19.10
2018-09-20T04:31:56.988Z,19.10
2018-09-20T04:34:25.161Z,19.10
2018-09-20T04:36:53.421Z,19.20
2018-09-20T04:39:21.621Z,19.20
2018-09-20T04:41:49.938Z,19.20
2018-09-20T04:44:18.236Z,19.20
2018-09-20T04:46:46.489Z,19.20
2018-09-20T04:49:14.785Z,19.20
2018-09-20T04:51:43.029Z,19.10
2018-09-20T04:54:11.260Z,19.00
2018-09-20T04:56:39.568Z,19.00
2018-09-20T04:59:07.896Z,18.90
2018-09-20T05:01:36.176Z,18.90
2018-09-20T05:04:04.411Z,18.80
2018-09-20T05:06:32.678Z,18.70
2018-09-20T05:09:00.969Z,18.70
2018-09-20T05:11:29.280Z,18.70
2018-09-20T05:13:57.564Z,18.70
2018-09-20T05:16:25.868Z,18.70
2018-09-20T05:18:54.121Z,18.70
2018-09-20T05:21:22.341Z,18.80
2018-09-20T05:23:50.606Z,18.80
2018-09-20T05:26:18.851Z,18.90
2018-09-20T05:28:47.104Z,18.90
2018-09-20T05:31:15.363Z,18.90
2018-09-20T05:33:43.786Z,19.00
2018-09-20T05:36:12.060Z,19.00
2018-09-20T05:38:40.315Z,19.00
2018-09-20T05:41:08.615Z,19.00
2018-09-20T05:43:36.899Z,19.00
2018-09-20T05:46:05.207Z,18.90
2018-09-20T05:48:33.439Z,18.90
2018-09-20T05:51:01.667Z,18.80
2018-09-20T05:53:29.918Z,18.80
2018-09-20T05:55:58.156Z,18.80
2018-09-20T05:58:26.408Z,18.80
2018-09-20T06:00:55.281Z,18.90
2018-09-20T06:03:23.540Z,18.90
2018-09-20T06:05:51.816Z,18.90
2018-09-20T06:08:20.077Z,18.90
2018-09-20T06:10:48.415Z,18.90
2018-09-20T06:13:16.717Z,18.90
2018-09-20T06:15:45.011Z,18.90
2018-09-20T06:18:13.271Z,19.00
2018-09-20T06:20:41.495Z,18.90
2018-09-20T06:23:09.804Z,19.00
2018-09-20T06:25:38.047Z,19.20
2018-09-20T06:28:06.364Z,19.20
2018-09-20T06:30:34.632Z,19.20
2018-09-20T06:33:02.879Z,19.30
2018-09-20T06:35:31.711Z,19.30
2018-09-20T06:37:59.972Z,19.40
2018-09-20T06:40:28.224Z,19.40
2018-09-20T06:42:56.460Z,19.50
2018-09-20T06:45:24.721Z,19.50
2018-09-20T06:47:52.941Z,19.50
2018-09-20T06:50:21.389Z,19.50
2018-09-20T06:52:49.605Z,19.60
2018-09-20T06:55:17.873Z,19.50
2018-09-20T06:57:46.146Z,19.60
2018-09-20T07:00:14.462Z,19.60
2018-09-20T07:02:42.887Z,19.70
2018-09-20T07:05:11.490Z,19.70
2018-09-20T07:07:39.768Z,19.70
2018-09-20T07:10:08.182Z,19.70
2018-09-20T07:12:36.428Z,19.70
2018-09-20T07:15:04.678Z,19.70
2018-09-20T07:17:32.934Z,19.80
2018-09-20T07:20:01.157Z,19.80
2018-09-20T07:22:29.484Z,19.80
2018-09-20T07:24:57.741Z,19.80
2018-09-20T07:27:26.084Z,19.80
2018-09-20T07:29:54.343Z,19.80
2018-09-20T07:32:22.607Z,19.80
2018-09-20T07:34:50.986Z,19.80
2018-09-20T07:37:19.292Z,19.90
2018-09-20T07:39:47.674Z,19.90
2018-09-20T07:42:15.923Z,20.00
2018-09-20T07:44:44.196Z,20.10
2018-09-20T07:47:12.511Z,20.20
2018-09-20T07:49:40.780Z,20.30
2018-09-20T07:52:09.127Z,20.30
2018-09-20T07:57:18.676Z,20.50
2018-09-20T07:59:47.079Z,20.60
2018-09-20T08:02:15.342Z,20.80
2018-09-20T08:04:43.849Z,20.90
2018-09-20T08:07:12.161Z,21.00
2018-09-20T08:09:40.355Z,21.10
2018-09-20T08:12:08.623Z,21.10
2018-09-20T08:14:36.863Z,21.20
2018-09-20T08:17:05.132Z,21.20
2018-09-20T08:19:33.368Z,21.40
2018-09-20T08:22:01.632Z,21.50
2018-09-20T08:24:29.894Z,21.70
2018-09-20T08:26:58.163Z,21.80
2018-09-20T08:29:26.440Z,22.00
2018-09-20T08:31:54.683Z,22.00
2018-09-20T08:34:23.078Z,22.10
2018-09-20T08:36:51.348Z,22.10
2018-09-20T08:39:19.618Z,22.10
2018-09-20T08:41:47.878Z,22.10
2018-09-20T08:44:16.173Z,22.20
2018-09-20T08:46:44.453Z,22.30
2018-09-20T08:49:12.754Z,22.30
2018-09-20T08:51:40.971Z,22.40
2018-09-20T08:54:09.248Z,22.50
2018-09-20T08:56:37.479Z,22.50
2018-09-20T08:59:05.783Z,22.50
2018-09-20T09:01:34.010Z,22.60
2018-09-20T09:04:02.433Z,22.70
2018-09-20T09:06:30.660Z,22.80
2018-09-20T09:08:59.134Z,22.80
2018-09-20T09:11:27.419Z,22.90
2018-09-20T09:13:55.666Z,22.90
2018-09-20T09:16:23.934Z,23.10
2018-09-20T09:18:52.187Z,23.20
2018-09-20T09:21:20.400Z,23.50
2018-09-20T09:23:48.649Z,23.50
2018-09-20T09:26:16.874Z,23.60
2018-09-20T09:28:45.182Z,23.70
2018-09-20T09:31:13.360Z,23.80
2018-09-20T09:33:41.734Z,23.90
2018-09-20T09:36:10.040Z,24.00
2018-09-20T09:38:38.283Z,24.20
2018-09-20T09:41:06.543Z,24.30
2018-09-20T09:43:34.799Z,24.40
2018-09-20T09:46:03.040Z,24.40
2018-09-20T09:48:31.265Z,24.40
2018-09-20T09:51:25.238Z,24.50
2018-09-20T09:53:53.455Z,24.80
2018-09-20T09:56:21.700Z,25.00
2018-09-20T09:58:49.935Z,25.10
2018-09-20T10:01:18.216Z,25.10
2018-09-20T10:03:46.740Z,25.00
2018-09-20T10:06:14.995Z,25.10
2018-09-20T10:08:43.318Z,25.00
2018-09-20T10:11:11.655Z,24.90
2018-09-20T10:13:40.033Z,24.80
2018-09-20T10:16:08.290Z,24.70
2018-09-20T10:18:36.659Z,24.60
2018-09-20T10:21:04.960Z,24.50
2018-09-20T10:23:33.216Z,24.50
2018-09-20T10:26:01.613Z,24.50
2018-09-20T10:28:29.898Z,24.50
2018-09-20T10:30:58.197Z,24.60
2018-09-20T10:33:26.625Z,24.70
2018-09-20T10:35:54.935Z,24.80
2018-09-20T10:38:23.204Z,24.80
2018-09-20T10:40:51.452Z,24.80
2018-09-20T10:43:19.707Z,24.70
2018-09-20T10:45:47.994Z,24.60
2018-09-20T10:48:16.260Z,24.60
2018-09-20T10:50:44.495Z,24.50
2018-09-20T10:53:12.725Z,24.50
2018-09-20T10:55:40.959Z,24.60
2018-09-20T10:58:09.230Z,24.50
2018-09-20T11:00:37.505Z,24.70
2018-09-20T11:03:06.066Z,24.90
2018-09-20T11:05:34.271Z,25.00
2018-09-20T11:08:02.521Z,25.00
2018-09-20T11:10:30.858Z,25.20
2018-09-20T11:12:59.067Z,25.20
2018-09-20T11:15:27.305Z,25.30
2018-09-20T11:17:55.631Z,25.30
2018-09-20T11:20:23.881Z,25.50
2018-09-20T11:22:52.334Z,25.60
2018-09-20T11:25:20.802Z,25.50
2018-09-20T11:27:49.035Z,25.40
2018-09-20T11:30:17.301Z,25.40
2018-09-20T11:32:45.570Z,25.50
2018-09-20T11:35:13.840Z,25.60
2018-09-20T11:37:42.119Z,25.60
2018-09-20T11:40:10.377Z,25.50
2018-09-20T11:42:38.610Z,25.50
2018-09-20T11:45:06.893Z,25.50
2018-09-20T11:47:35.156Z,25.60
2018-09-20T11:50:03.423Z,25.60
2018-09-20T11:52:31.683Z,25.60
2018-09-20T11:55:00.077Z,25.50
2018-09-20T11:57:28.343Z,25.50
2018-09-20T11:59:56.663Z,25.50
2018-09-20T12:02:24.952Z,25.50
2018-09-20T12:04:53.171Z,25.60
2018-09-20T12:07:21.457Z,25.70
2018-09-20T12:09:49.708Z,25.70
2018-09-20T12:12:17.987Z,25.70
2018-09-20T12:14:46.274Z,25.60
2018-09-20T12:17:14.543Z,25.60
2018-09-20T12:19:42.796Z,25.70
2018-09-20T12:22:11.031Z,25.80
2018-09-20T12:24:39.295Z,26.00
2018-09-20T12:27:07.583Z,26.10
2018-09-20T12:29:35.862Z,26.20
2018-09-20T12:32:04.140Z,26.30
2018-09-20T12:34:32.380Z,26.30
2018-09-20T12:37:00.664Z,26.30
2018-09-20T12:39:28.900Z,26.30
2018-09-20T12:41:57.122Z,26.30
2018-09-20T12:44:25.380Z,26.30
2018-09-20T12:46:53.639Z,26.40
2018-09-20T12:49:21.924Z,26.50
2018-09-20T12:51:50.179Z,26.60
2018-09-20T12:54:18.603Z,26.70
2018-09-20T12:56:46.832Z,26.80
2018-09-20T12:59:15.060Z,26.90
2018-09-20T13:01:43.324Z,27.10
2018-09-20T13:04:11.607Z,27.30
2018-09-20T13:06:39.855Z,27.40
2018-09-20T13:09:09.279Z,27.50
2018-09-20T13:11:37.579Z,27.60
2018-09-20T13:14:05.822Z,27.70
2018-09-20T13:16:34.086Z,27.80
2018-09-20T13:19:02.388Z,27.90
2018-09-20T13:21:30.732Z,28.00
2018-09-20T13:23:58.999Z,28.40
2018-09-20T13:26:27.249Z,29.70
2018-09-20T13:28:55.625Z,31.00
2018-09-20T13:31:23.859Z,32.60
2018-09-20T13:33:52.125Z,34.10
2018-09-20T13:36:20.387Z,35.70
2018-09-20T13:38:48.645Z,36.90
2018-09-20T13:41:16.911Z,38.00
2018-09-20T13:43:45.158Z,38.70
2018-09-20T13:46:13.405Z,39.50
2018-09-20T13:48:41.619Z,40.70
2018-09-20T13:51:09.887Z,42.10
2018-09-20T13:53:38.285Z,43.10
2018-09-20T13:56:06.540Z,43.90
2018-09-20T13:58:34.808Z,44.60
2018-09-20T14:01:03.071Z,45.30
2018-09-20T14:03:31.427Z,45.60
2018-09-20T14:05:59.732Z,45.80
2018-09-20T14:08:28.299Z,46.30
2018-09-20T14:10:56.571Z,46.30
2018-09-20T14:13:24.866Z,46.50
2018-09-20T14:15:53.100Z,46.80
2018-09-20T14:18:21.376Z,47.30
2018-09-20T14:20:49.641Z,47.30
2018-09-20T14:23:17.914Z,47.30
2018-09-20T14:25:46.163Z,47.40
2018-09-20T14:28:14.423Z,46.90
2018-09-20T14:30:42.673Z,46.80
2018-09-20T14:33:10.939Z,46.60
2018-09-20T14:35:39.355Z,46.80
2018-09-20T14:38:07.619Z,46.90
2018-09-20T14:40:35.834Z,47.10
2018-09-20T14:43:04.127Z,47.20
2018-09-20T14:45:32.535Z,47.50
2018-09-20T14:48:00.782Z,47.70
2018-09-20T14:50:29.047Z,47.60
2018-09-20T14:52:57.303Z,47.50
2018-09-20T14:55:25.777Z,47.80
2018-09-20T14:57:54.052Z,47.70
2018-09-20T15:00:22.312Z,47.40
2018-09-20T15:02:50.571Z,47.20
2018-09-20T15:05:18.882Z,46.90
2018-09-20T15:07:47.145Z,46.40
2018-09-20T15:10:15.411Z,46.20
2018-09-20T15:12:43.647Z,45.80
2018-09-20T15:15:12.229Z,45.60
2018-09-20T15:17:40.382Z,45.90
2018-09-20T15:20:08.594Z,45.70
2018-09-20T15:22:36.863Z,45.10
2018-09-20T15:25:05.311Z,44.40
2018-09-20T15:27:33.578Z,43.70
2018-09-20T15:30:01.818Z,43.30
2018-09-20T15:32:30.132Z,43.20
2018-09-20T15:34:58.355Z,43.30
2018-09-20T15:37:26.586Z,43.30
2018-09-20T15:39:54.918Z,43.00
2018-09-20T15:42:23.172Z,42.60
2018-09-20T15:44:51.580Z,42.50
2018-09-20T15:47:19.880Z,42.40
2018-09-20T15:49:49.017Z,42.40
2018-09-20T15:52:17.364Z,42.40
2018-09-20T15:54:46.908Z,41.90
2018-09-20T15:57:15.430Z,41.30
2018-09-20T15:59:44.140Z,40.10
2018-09-20T16:02:12.608Z,38.70
2018-09-20T16:04:40.946Z,37.80
2018-09-20T16:07:09.230Z,37.00
2018-09-20T16:09:38.181Z,36.40
2018-09-20T16:12:06.423Z,36.80
2018-09-20T16:14:35.091Z,37.50
2018-09-20T16:17:03.306Z,37.70
2018-09-20T16:19:31.867Z,37.70
2018-09-20T16:22:00.316Z,37.50
2018-09-20T16:24:28.900Z,36.80
2018-09-20T16:26:57.330Z,36.00
2018-09-20T16:29:47.350Z,35.30
2018-09-20T16:32:26.010Z,34.80
2018-09-20T16:39:08.004Z,33.50
2018-09-20T16:41:39.802Z,32.50
2018-09-20T16:44:08.063Z,31.80
2018-09-20T16:46:36.342Z,31.30
2018-09-20T16:49:04.888Z,31.00
2018-09-20T16:51:33.278Z,30.70
2018-09-20T16:54:03.030Z,30.40
2018-09-20T16:56:31.530Z,30.20
2018-09-20T16:59:00.014Z,29.90
2018-09-20T17:01:28.887Z,29.70
2018-09-20T17:03:57.212Z,29.50
2018-09-20T17:06:25.465Z,29.30
2018-09-20T17:08:53.799Z,29.10
2018-09-20T17:11:22.391Z,28.90
2018-09-20T17:13:50.665Z,28.80
2018-09-20T17:16:19.780Z,28.70
2018-09-20T17:18:48.015Z,28.60
2018-09-20T17:21:16.284Z,28.40
2018-09-20T17:23:44.589Z,28.20
2018-09-20T17:26:12.822Z,28.00
2018-09-20T17:28:41.311Z,27.80
2018-09-20T17:31:09.683Z,27.70
2018-09-20T17:33:37.972Z,27.50
2018-09-20T17:36:06.235Z,27.40
2018-09-20T17:38:35.027Z,27.30
2018-09-20T17:41:05.853Z,27.10
2018-09-20T17:43:39.209Z,27.00
2018-09-20T17:46:08.235Z,26.80
2018-09-20T17:48:37.504Z,26.70
2018-09-20T17:51:07.890Z,26.60
2018-09-20T17:53:37.635Z,26.50
2018-09-20T17:56:07.362Z,26.40
2018-09-20T17:58:36.622Z,26.40
2018-09-20T18:01:05.562Z,26.30
2018-09-20T18:03:33.820Z,26.20
2018-09-20T18:06:02.074Z,26.20
2018-09-20T18:08:30.340Z,26.20
2018-09-20T18:10:58.583Z,26.10
2018-09-20T18:13:26.880Z,26.10
2018-09-20T18:15:55.161Z,26.00
2018-09-20T18:18:23.522Z,26.00
2018-09-20T18:20:58.351Z,25.90
2018-09-20T18:23:31.216Z,25.80
2018-09-20T18:25:59.564Z,25.80
2018-09-20T18:28:27.820Z,25.80
2018-09-20T18:30:56.960Z,25.80
2018-09-20T18:33:25.195Z,25.70
2018-09-20T18:35:54.964Z,25.70
2018-09-20T18:38:23.291Z,25.60
2018-09-20T18:40:52.143Z,25.50
2018-09-20T18:43:20.427Z,25.50
2018-09-20T18:45:48.698Z,25.40
2018-09-20T18:48:17.009Z,25.30
2018-09-20T18:50:45.378Z,25.20
2018-09-20T18:53:13.612Z,25.20
2018-09-20T18:55:41.853Z,25.20
2018-09-20T18:58:10.114Z,25.10
2018-09-20T19:00:38.390Z,25.10
2018-09-20T19:03:06.680Z,25.10
2018-09-20T19:05:35.065Z,25.00
2018-09-20T19:08:03.324Z,25.00
2018-09-20T19:10:31.583Z,24.90
2018-09-20T19:12:59.887Z,24.80
2018-09-20T19:15:28.179Z,24.80
2018-09-20T19:17:56.455Z,24.80
2018-09-20T19:20:24.724Z,24.80
2018-09-20T19:22:52.988Z,24.70
2018-09-20T19:25:21.251Z,24.70
2018-09-20T19:27:49.568Z,24.70
2018-09-20T19:30:18.333Z,24.60
2018-09-20T19:32:46.609Z,24.50
2018-09-20T19:35:15.043Z,24.40
2018-09-20T19:37:43.379Z,24.40
2018-09-20T19:40:11.641Z,24.40
2018-09-20T19:42:39.891Z,24.30
2018-09-20T19:45:08.192Z,24.30
2018-09-20T19:47:36.531Z,24.30
2018-09-20T19:50:05.515Z,24.30
2018-09-20T19:52:33.793Z,24.20
2018-09-20T19:55:02.078Z,24.20
2018-09-20T19:57:30.356Z,24.10
2018-09-20T19:59:58.628Z,24.10
2018-09-20T20:02:26.971Z,24.00
2018-09-20T20:04:55.685Z,24.00
2018-09-20T20:07:23.960Z,23.90
2018-09-20T20:09:52.191Z,23.90
2018-09-20T20:12:20.504Z,23.80
2018-09-20T20:14:50.083Z,23.80
2018-09-20T20:17:18.402Z,23.70
2018-09-20T20:19:46.713Z,23.70
2018-09-20T20:22:14.989Z,23.70
2018-09-20T20:24:43.224Z,23.60
2018-09-20T20:27:11.461Z,23.60
2018-09-20T20:29:39.742Z,23.60
2018-09-20T20:32:07.984Z,23.50
2018-09-20T20:34:36.913Z,23.50
2018-09-20T20:37:05.831Z,23.40
2018-09-20T20:39:34.079Z,23.40
2018-09-20T20:42:02.323Z,23.30
2018-09-20T20:44:30.609Z,23.30
2018-09-20T20:46:58.839Z,23.30
2018-09-20T20:49:27.121Z,23.30
2018-09-20T20:51:56.092Z,23.30
2018-09-20T20:54:24.393Z,23.30
2018-09-20T20:56:52.627Z,23.20
2018-09-20T20:59:21.616Z,23.20
2018-09-20T21:01:50.596Z,23.20
2018-09-20T21:04:18.962Z,23.20
2018-09-20T21:06:47.243Z,23.20
2018-09-20T21:09:15.483Z,23.20
2018-09-20T21:11:43.751Z,23.20
2018-09-20T21:14:12.011Z,23.10
2018-09-20T21:16:40.248Z,23.10
2018-09-20T21:19:08.495Z,23.10
2018-09-20T21:21:36.808Z,23.10
2018-09-20T21:24:05.043Z,23.00
2018-09-20T21:26:33.289Z,23.00
2018-09-20T21:29:01.560Z,23.00
2018-09-20T21:31:29.809Z,23.00
2018-09-20T21:33:58.205Z,23.00
2018-09-20T21:36:26.778Z,23.00
2018-09-20T21:38:55.362Z,23.00
2018-09-20T21:41:23.591Z,23.00
2018-09-20T21:43:51.856Z,23.00
2018-09-20T21:46:20.120Z,23.00
2018-09-20T21:48:48.404Z,23.00
2018-09-20T21:51:16.735Z,23.00
2018-09-20T21:53:44.951Z,22.90
2018-09-20T21:56:13.191Z,22.90
2018-09-20T21:58:41.491Z,22.80
2018-09-20T22:01:13.132Z,22.80
2018-09-20T22:03:41.553Z,22.80
2018-09-20T22:06:09.911Z,22.80
2018-09-20T22:08:38.181Z,22.80
2018-09-20T22:11:06.450Z,22.70
2018-09-20T22:13:34.708Z,22.70
2018-09-20T22:16:02.971Z,22.70
2018-09-20T22:18:31.204Z,22.70
2018-09-20T22:20:59.483Z,22.70
2018-09-20T22:23:27.764Z,22.60
2018-09-20T22:25:56.021Z,22.60
2018-09-20T22:28:24.288Z,22.60
2018-09-20T22:30:52.503Z,22.60
2018-09-20T22:33:20.754Z,22.60
2018-09-20T22:35:49.033Z,22.60
2018-09-20T22:38:17.299Z,22.60
2018-09-20T22:40:45.536Z,22.60
2018-09-20T22:43:13.816Z,22.60
2018-09-20T22:45:42.092Z,22.50
2018-09-20T22:48:10.364Z,22.50
2018-09-20T22:50:38.620Z,22.40
2018-09-20T22:53:07.193Z,22.40
2018-09-20T22:55:35.553Z,22.40
2018-09-20T22:58:03.859Z,22.40
2018-09-20T23:00:32.109Z,22.30
2018-09-20T23:03:00.371Z,22.30
2018-09-20T23:05:28.629Z,22.30
2018-09-20T23:07:56.877Z,22.30
2018-09-20T23:10:25.099Z,22.30
2018-09-20T23:12:53.364Z,22.30
2018-09-20T23:15:21.616Z,22.30
2018-09-20T23:17:49.872Z,22.20
2018-09-20T23:20:18.164Z,22.20
2018-09-20T23:22:46.420Z,22.20
2018-09-20T23:25:14.681Z,22.20
2018-09-20T23:27:42.963Z,22.20
2018-09-20T23:30:11.239Z,22.20
2018-09-20T23:32:39.495Z,22.20
2018-09-20T23:35:07.805Z,22.10
2018-09-20T23:37:36.034Z,22.10
2018-09-20T23:40:04.318Z,22.10
2018-09-20T23:42:32.598Z,22.10
2018-09-20T23:45:00.861Z,22.10
2018-09-20T23:47:29.099Z,22.10
2018-09-20T23:49:57.351Z,22.00
2018-09-20T23:52:25.604Z,22.00
2018-09-20T23:54:54.032Z,22.00
2018-09-20T23:57:22.293Z,21.90
2018-09-20T23:59:50.567Z,21.90
